Elisabeth — LHEA — position and weather

sailwx.info

Track history (hours):
 
Tides and Currents Weather Stations Pressure Air Temp Water Temp Dewpoint Dewpoint Depression Visibility Wind Speed Wind Dir Waves Ship Positions

Elisabeth

Last reported at 2014-Nov-07 16:32 UTC. Time now 2014-Nov-20 20:57 UTC.
Position N 63°36' E 009°16'.
Warning: this ship's position is 13 days out of date.

Length 61 m; draft 5.8 m.

Type: Fishing. MMSI: 259166000.

Date/timePositionNaut miles runAvg speedWind from/ knotsBaromVisibWave heightAir tempDewpointWater temp
2014-Nov-07 16:32N 63°36' E 009°16'9 9.7
2014-Nov-07 15:33N 63°44' E 009°26'1410.8
2014-Nov-07 14:14N 63°57' E 009°39'15311.0
2014-Nov-07 00:19N 66°10' E 012°39'7 9.4
2014-Nov-06 23:33N 66°15' E 012°27'1010.4
2014-Nov-06 22:33N 66°21' E 012°06'9 9.0
2014-Nov-06 21:33N 66°30' E 012°06'0 0.1
2014-Nov-06 20:33N 66°30' E 012°06'0 0.0
2014-Nov-06 19:30N 66°30' E 012°06'0 0.0
2014-Nov-06 18:33N 66°30' E 012°06'0 0.0
2014-Nov-06 17:33N 66°30' E 012°06'0 0.0
2014-Nov-06 16:33N 66°30' E 012°06'0 0.0
2014-Nov-06 15:33N 66°30' E 012°06'0 0.0
2014-Nov-06 14:33N 66°30' E 012°06'0 0.0
2014-Nov-06 13:33N 66°30' E 012°06'0 0.0
2014-Nov-06 12:23N 66°30' E 012°06'0 0.0
2014-Nov-06 11:33N 66°30' E 012°06'0 0.0
2014-Nov-06 10:33N 66°30' E 012°06'0 0.0
2014-Nov-06 09:33N 66°30' E 012°06'0 0.0
2014-Nov-06 08:32N 66°30' E 012°06'0 0.0
2014-Nov-06 07:33N 66°30' E 012°06'0 0.0
2014-Nov-06 06:33N 66°30' E 012°06'0 0.0
2014-Nov-06 05:33N 66°30' E 012°06'0 0.0
2014-Nov-06 04:33N 66°30' E 012°06'0 0.0
2014-Nov-06 03:33N 66°30' E 012°06'0 0.0
2014-Nov-06 01:12N 66°30' E 012°06'0 0.0
2014-Nov-06 00:30N 66°30' E 012°06'0 0.0
2014-Nov-05 23:33N 66°30' E 012°06'0 0.0
2014-Nov-05 22:23N 66°30' E 012°06'0 0.0
2014-Nov-05 21:31N 66°30' E 012°06'0 0.0
2014-Nov-05 20:33N 66°30' E 012°06'0 0.0
2014-Nov-05 19:33N 66°30' E 012°06'6 5.8
2014-Nov-05 18:31N 66°24' E 012°02'  
2014-Nov-01 06:33N 59°24' E 005°08'1212.4
2014-Nov-01 05:34N 59°12' E 005°06'1212.0
2014-Nov-01 04:33N 59°00' E 005°15'1211.9
2014-Nov-01 03:33N 58°49' E 005°23'1712.4
2014-Nov-01 02:09N 58°33' E 005°37'812.7
2014-Nov-01 01:34N 58°28' E 005°46'7 6.8
2014-Nov-01 00:33N 58°27' E 005°59'0 0.0
2014-Oct-31 23:34N 58°27' E 005°59'0 0.0
2014-Oct-31 22:33N 58°27' E 005°59'0 0.0
2014-Oct-31 21:33N 58°27' E 005°59'0 0.0
2014-Oct-31 20:34N 58°27' E 005°59'0 0.0
2014-Oct-31 19:33N 58°27' E 005°59'0 0.0
2014-Oct-31 18:33N 58°27' E 005°59'0 0.0
2014-Oct-31 17:33N 58°27' E 005°59'0 0.0
2014-Oct-31 16:33N 58°27' E 005°59'0 0.0
2014-Oct-31 15:34N 58°27' E 005°59'0 0.0
2014-Oct-31 14:33N 58°27' E 005°59'0 0.0
2014-Oct-31 13:33N 58°27' E 005°59'0 0.0
2014-Oct-31 12:33N 58°27' E 005°59'0 0.0
2014-Oct-31 11:34N 58°27' E 005°59'0 0.0
2014-Oct-31 10:33N 58°27' E 005°59'0 0.0
2014-Oct-31 09:34N 58°27' E 005°59'0 0.0
2014-Oct-31 08:34N 58°27' E 005°59'0 0.0
2014-Oct-31 07:33N 58°27' E 005°59'0 0.0
2014-Oct-31 06:34N 58°27' E 005°59'0 0.0
2014-Oct-31 05:34N 58°27' E 005°59'0 0.0
2014-Oct-31 04:34N 58°27' E 005°59'0 0.0
2014-Oct-31 03:33N 58°27' E 005°59'0 0.0
2014-Oct-31 02:33N 58°27' E 005°59'0 0.0
2014-Oct-31 01:34N 58°27' E 005°59'5 5.1
2014-Oct-31 00:32N 58°26' E 005°49'20 9.1
2014-Oct-30 22:24N 58°42' E 005°29'8 9.8
2014-Oct-30 21:33N 58°50' E 005°24'1010.0
2014-Oct-30 20:34N 58°60' E 005°19'1110.5
2014-Oct-30 19:33N 59°10' E 005°20'11 9.8
2014-Oct-30 18:26N 59°21' E 005°19'8 9.1
2014-Oct-30 17:33N 59°29' E 005°13'  
Track history (hours):
 
Tides and Currents Weather Stations Pressure Air Temp Water Temp Dewpoint Dewpoint Depression Visibility Wind Speed Wind Dir Waves Ship Positions

Elisabeth

Last reported at 2014-Nov-07 16:32 UTC. Time now 2014-Nov-20 20:57 UTC.
Position N 63°36' E 009°16'.
Warning: this ship's position is 13 days out of date.

Length 61 m; draft 5.8 m.

Type: Fishing. MMSI: 259166000.

Date/timePositionNaut miles runAvg speedWind from/ knotsBaromVisibWave heightAir tempDewpointWater temp
2014-Nov-07 16:32N 63°36' E 009°16'9 9.7
2014-Nov-07 15:33N 63°44' E 009°26'1410.8
2014-Nov-07 14:14N 63°57' E 009°39'15311.0
2014-Nov-07 00:19N 66°10' E 012°39'7 9.4
2014-Nov-06 23:33N 66°15' E 012°27'1010.4
2014-Nov-06 22:33N 66°21' E 012°06'9 9.0
2014-Nov-06 21:33N 66°30' E 012°06'0 0.1
2014-Nov-06 20:33N 66°30' E 012°06'0 0.0
2014-Nov-06 19:30N 66°30' E 012°06'0 0.0
2014-Nov-06 18:33N 66°30' E 012°06'0 0.0
2014-Nov-06 17:33N 66°30' E 012°06'0 0.0
2014-Nov-06 16:33N 66°30' E 012°06'0 0.0
2014-Nov-06 15:33N 66°30' E 012°06'0 0.0
2014-Nov-06 14:33N 66°30' E 012°06'0 0.0
2014-Nov-06 13:33N 66°30' E 012°06'0 0.0
2014-Nov-06 12:23N 66°30' E 012°06'0 0.0
2014-Nov-06 11:33N 66°30' E 012°06'0 0.0
2014-Nov-06 10:33N 66°30' E 012°06'0 0.0
2014-Nov-06 09:33N 66°30' E 012°06'0 0.0
2014-Nov-06 08:32N 66°30' E 012°06'0 0.0
2014-Nov-06 07:33N 66°30' E 012°06'0 0.0
2014-Nov-06 06:33N 66°30' E 012°06'0 0.0
2014-Nov-06 05:33N 66°30' E 012°06'0 0.0
2014-Nov-06 04:33N 66°30' E 012°06'0 0.0
2014-Nov-06 03:33N 66°30' E 012°06'0 0.0
2014-Nov-06 01:12N 66°30' E 012°06'0 0.0
2014-Nov-06 00:30N 66°30' E 012°06'0 0.0
2014-Nov-05 23:33N 66°30' E 012°06'0 0.0
2014-Nov-05 22:23N 66°30' E 012°06'0 0.0
2014-Nov-05 21:31N 66°30' E 012°06'0 0.0
2014-Nov-05 20:33N 66°30' E 012°06'0 0.0
2014-Nov-05 19:33N 66°30' E 012°06'6 5.8
2014-Nov-05 18:31N 66°24' E 012°02'  
2014-Nov-01 06:33N 59°24' E 005°08'1212.4
2014-Nov-01 05:34N 59°12' E 005°06'1212.0
2014-Nov-01 04:33N 59°00' E 005°15'1211.9
2014-Nov-01 03:33N 58°49' E 005°23'1712.4
2014-Nov-01 02:09N 58°33' E 005°37'812.7
2014-Nov-01 01:34N 58°28' E 005°46'7 6.8
2014-Nov-01 00:33N 58°27' E 005°59'0 0.0
2014-Oct-31 23:34N 58°27' E 005°59'0 0.0
2014-Oct-31 22:33N 58°27' E 005°59'0 0.0
2014-Oct-31 21:33N 58°27' E 005°59'0 0.0
2014-Oct-31 20:34N 58°27' E 005°59'0 0.0
2014-Oct-31 19:33N 58°27' E 005°59'0 0.0
2014-Oct-31 18:33N 58°27' E 005°59'0 0.0
2014-Oct-31 17:33N 58°27' E 005°59'0 0.0
2014-Oct-31 16:33N 58°27' E 005°59'0 0.0
2014-Oct-31 15:34N 58°27' E 005°59'0 0.0
2014-Oct-31 14:33N 58°27' E 005°59'0 0.0
2014-Oct-31 13:33N 58°27' E 005°59'0 0.0
2014-Oct-31 12:33N 58°27' E 005°59'0 0.0
2014-Oct-31 11:34N 58°27' E 005°59'0 0.0
2014-Oct-31 10:33N 58°27' E 005°59'0 0.0
2014-Oct-31 09:34N 58°27' E 005°59'0 0.0
2014-Oct-31 08:34N 58°27' E 005°59'0 0.0
2014-Oct-31 07:33N 58°27' E 005°59'0 0.0
2014-Oct-31 06:34N 58°27' E 005°59'0 0.0
2014-Oct-31 05:34N 58°27' E 005°59'0 0.0
2014-Oct-31 04:34N 58°27' E 005°59'0 0.0
2014-Oct-31 03:33N 58°27' E 005°59'0 0.0
2014-Oct-31 02:33N 58°27' E 005°59'0 0.0
2014-Oct-31 01:34N 58°27' E 005°59'5 5.1
2014-Oct-31 00:32N 58°26' E 005°49'20 9.1
2014-Oct-30 22:24N 58°42' E 005°29'8 9.8
2014-Oct-30 21:33N 58°50' E 005°24'1010.0
2014-Oct-30 20:34N 58°60' E 005°19'1110.5
2014-Oct-30 19:33N 59°10' E 005°20'11 9.8
2014-Oct-30 18:26N 59°21' E 005°19'8 9.1
2014-Oct-30 17:33N 59°29' E 005°13'  

Dump ship's entire track history